Time;durP1;ratioP1;P1;durP2;ratioP2;P2;SDS_P1;SDS_P2;PMS_P1;PMS_P2;Temp;Humidity;BMP_temperature;BMP_pressure;BME280_temperature;BME280_humidity;BME280_pressure;Samples;Min_cycle;Max_cycle;Signal;HPM_P1;HPM_P2
2022/08/24 00:01:22;;;;;;;;;7.25;6.75;;;;;25.56;51.38;101177.31;5074293;28;45852;-68
2022/08/24 00:03:48;;;;;;;;;7.33;7.33;;;;;25.47;52.07;101192.06;5058385;28;45342;-68
2022/08/24 00:06:19;;;;;;;;;7.50;6.00;;;;;25.46;52.01;101186.78;5074039;28;45696;-68
2022/08/24 00:08:47;;;;;;;;;4.25;4.25;;;;;25.49;52.51;101187.50;5077275;28;45599;-68
2022/08/24 00:11:13;;;;;;;;;6.33;5.00;;;;;25.30;52.66;101168.84;5064508;28;45509;-69
2022/08/24 00:13:39;;;;;;;;;6.67;6.00;;;;;25.30;52.92;101179.56;5051036;28;45490;-69
2022/08/24 00:16:07;;;;;;;;;4.33;4.33;;;;;25.21;52.97;101166.63;5073915;28;46092;-67
2022/08/24 00:18:33;;;;;;;;;3.25;3.25;;;;;25.26;52.83;101188.72;5074334;28;45410;-68
2022/08/24 00:20:59;;;;;;;;;4.50;4.50;;;;;25.11;53.45;101174.25;5078473;28;45346;-67
2022/08/24 00:23:25;;;;;;;;;3.25;3.25;;;;;25.05;53.72;101163.84;5078523;28;45537;-66
2022/08/24 00:25:50;;;;;;;;;3.00;3.00;;;;;25.21;53.33;101184.53;5068110;28;45497;-66
2022/08/24 00:28:16;;;;;;;;;3.50;3.50;;;;;25.08;54.02;101173.53;5073448;28;45464;-68
2022/08/24 00:30:42;;;;;;;;;3.00;3.00;;;;;25.09;53.61;101183.34;5073587;28;45825;-68
2022/08/24 00:33:07;;;;;;;;;4.50;4.00;;;;;25.12;54.34;101191.19;5067418;27;45396;-66
2022/08/24 00:35:33;;;;;;;;;6.00;4.25;;;;;25.05;54.29;101185.28;5053173;28;45500;-67
2022/08/24 00:37:58;;;;;;;;;4.00;3.00;;;;;25.13;54.26;101185.78;5073455;28;45606;-69
2022/08/24 00:40:28;;;;;;;;;4.00;4.00;;;;;25.15;54.26;101183.00;5076559;27;45235;-66
2022/08/24 00:42:55;;;;;;;;;1.75;1.75;;;;;25.15;54.28;101189.25;5073581;27;45443;-67
2022/08/24 00:45:23;;;;;;;;;3.25;3.25;;;;;25.14;54.43;101183.97;5072907;28;45448;-68
2022/08/24 00:47:49;;;;;;;;;5.00;3.00;;;;;25.15;54.30;101183.88;5075108;28;45550;-67
2022/08/24 00:50:22;;;;;;;;;2.75;2.75;;;;;25.08;54.47;101185.16;5072180;27;45718;-68
2022/08/24 00:53:01;;;;;;;;;3.50;3.50;;;;;25.03;54.88;101179.13;5070288;27;45524;-68
2022/08/24 00:55:42;;;;;;;;;3.75;3.75;;;;;24.90;55.23;101165.50;5073071;28;46509;-67
2022/08/24 00:58:13;;;;;;;;;2.50;2.50;;;;;24.96;55.04;101181.28;5073048;27;45563;-68
2022/08/24 01:00:44;;;;;;;;;4.00;3.00;;;;;24.92;54.86;101181.53;5073106;27;45351;-66
2022/08/24 01:03:10;;;;;;;;;2.25;1.75;;;;;24.84;55.40;101171.16;5073384;28;45433;-66
2022/08/24 01:05:37;;;;;;;;;3.00;3.00;;;;;24.87;55.37;101187.13;5076659;27;45465;-67
2022/08/24 01:08:06;;;;;;;;;3.00;3.00;;;;;24.84;55.65;101178.34;5074894;27;45536;-67
2022/08/24 01:10:40;;;;;;;;;3.00;3.00;;;;;24.87;55.12;101189.78;5069618;28;45516;-65
2022/08/24 01:13:09;;;;;;;;;3.00;3.00;;;;;24.78;55.84;101170.63;5065235;28;45438;-65
2022/08/24 01:15:38;;;;;;;;;3.00;3.00;;;;;24.70;55.56;101166.53;5074212;28;45695;-67
2022/08/24 01:21:16;;;;;;;;;3.00;3.00;;;;;24.67;55.63;101176.53;5073204;28;45441;-67
2022/08/24 01:23:42;;;;;;;;;5.67;2.33;;;;;24.74;55.64;101178.81;5056796;28;45463;-66
2022/08/24 01:26:14;;;;;;;;;5.75;3.00;;;;;24.65;56.15;101165.88;5076448;28;45674;-65
2022/08/24 01:28:48;;;;;;;;;2.25;2.25;;;;;24.47;55.78;101145.38;5076977;27;45350;-66
2022/08/24 01:31:15;;;;;;;;;2.25;2.25;;;;;24.64;55.80;101174.00;5077903;27;45619;-67
2022/08/24 01:33:41;;;;;;;;;3.25;3.25;;;;;24.71;55.86;101183.47;5077423;27;45457;-67
2022/08/24 01:36:21;;;;;;;;;2.00;2.00;;;;;24.70;55.97;101179.03;5076797;27;45377;-68
2022/08/24 01:38:48;;;;;;;;;2.50;2.50;;;;;24.67;55.88;101180.06;5077269;27;45209;-69
2022/08/24 01:41:14;;;;;;;;;2.00;2.00;;;;;24.68;56.03;101189.00;5078536;28;45437;-71
2022/08/24 01:43:40;;;;;;;;;2.00;2.00;;;;;24.59;56.69;101178.72;5078362;27;45512;-68
2022/08/24 01:46:06;;;;;;;;;2.00;2.00;;;;;24.52;56.62;101179.03;5077436;28;45338;-67
2022/08/24 01:48:31;;;;;;;;;2.25;2.25;;;;;24.58;56.05;101179.66;5077114;27;45322;-67
2022/08/24 01:50:57;;;;;;;;;3.00;3.00;;;;;24.61;56.74;101190.25;5077273;27;45465;-70
2022/08/24 01:53:23;;;;;;;;;3.33;2.33;;;;;24.55;56.79;101189.56;5077825;27;45761;-69
2022/08/24 01:55:49;;;;;;;;;3.00;3.00;;;;;24.33;57.11;101143.34;5077582;28;45283;-69
2022/08/24 01:58:14;;;;;;;;;2.00;2.00;;;;;24.58;56.60;101185.88;5076504;27;45454;-67
2022/08/24 02:00:40;;;;;;;;;3.75;3.00;;;;;24.49;56.62;101183.69;5076343;28;45812;-67
2022/08/24 02:03:07;;;;;;;;;3.33;3.33;;;;;24.41;57.20;101181.31;5057941;28;45571;-70
2022/08/24 02:05:33;;;;;;;;;4.00;2.00;;;;;24.27;57.21;101154.34;5058047;28;46331;-68
2022/08/24 02:07:59;;;;;;;;;3.00;3.00;;;;;24.41;56.98;101181.31;5075664;27;45491;-66
2022/08/24 02:10:26;;;;;;;;;3.00;3.00;;;;;24.48;57.23;101181.91;5072698;27;45725;-68
2022/08/24 02:12:58;;;;;;;;;3.00;3.00;;;;;24.43;57.18;101184.78;5065579;28;45859;-68
2022/08/24 02:15:30;;;;;;;;;2.50;2.50;;;;;24.35;57.20;101173.59;5057491;28;47560;-67
2022/08/24 02:17:56;;;;;;;;;3.00;3.00;;;;;24.44;57.10;101180.28;5076128;27;45810;-70
2022/08/24 02:20:22;;;;;;;;;3.67;3.67;;;;;24.37;57.15;101171.72;5078945;27;45377;-67
2022/08/24 02:22:50;;;;;;;;;3.33;3.00;;;;;24.27;56.80;101157.03;5058076;28;45294;-73
2022/08/24 02:25:16;;;;;;;;;2.00;2.00;;;;;24.38;57.17;101180.59;5075743;27;46325;-73
2022/08/24 02:27:41;;;;;;;;;4.00;3.00;;;;;;;;5075157;27;45478;-70
2022/08/24 02:30:08;;;;;;;;;3.00;3.00;;;;;24.33;57.00;101175.47;5075410;27;45686;-68
2022/08/24 02:32:33;;;;;;;;;2.50;2.50;;;;;24.32;57.12;101182.66;5075639;28;45695;-68
2022/08/24 02:34:59;;;;;;;;;3.00;3.00;;;;;24.18;57.53;101174.41;5056788;27;47657;-67
2022/08/24 02:37:24;;;;;;;;;1.67;1.67;;;;;24.26;57.26;101171.38;5074837;27;45500;-70
2022/08/24 02:39:51;;;;;;;;;3.00;3.00;;;;;24.27;57.67;101175.75;5074908;28;45464;-71
2022/08/24 02:42:17;;;;;;;;;2.00;2.00;;;;;24.27;57.18;101179.31;5037158;28;45304;-67
2022/08/24 02:44:43;;;;;;;;;2.00;2.00;;;;;24.33;57.23;101180.84;5057306;28;46297;-65
2022/08/24 02:47:09;;;;;;;;;2.00;2.00;;;;;24.36;57.00;101175.31;5054758;28;45429;-68
2022/08/24 02:49:36;;;;;;;;;2.00;2.00;;;;;24.28;57.06;101158.78;5059710;28;45502;-69
2022/08/24 02:52:02;;;;;;;;;2.00;2.00;;;;;24.31;57.29;101180.03;5068196;27;45489;-67
2022/08/24 02:54:28;;;;;;;;;2.00;2.00;;;;;24.21;57.43;101160.88;5063523;28;45572;-67
2022/08/24 02:56:54;;;;;;;;;2.00;2.00;;;;;24.27;57.25;101173.09;5072722;28;45266;-68
2022/08/24 02:59:20;;;;;;;;;2.00;2.00;;;;;24.23;57.56;101176.88;5074974;27;45434;-69
2022/08/24 03:01:47;;;;;;;;;3.00;2.25;;;;;24.24;57.51;101178.59;5073947;28;45504;-66
2022/08/24 03:04:14;;;;;;;;;3.00;2.00;;;;;24.16;57.49;101168.25;5062075;28;45460;-69
2022/08/24 03:06:39;;;;;;;;;2.50;2.50;;;;;24.17;57.41;101170.00;5079033;28;45401;-68
2022/08/24 03:09:08;;;;;;;;;2.33;2.33;;;;;24.00;57.12;101136.00;5078692;27;45512;-66
2022/08/24 03:11:33;;;;;;;;;2.00;2.00;;;;;24.10;57.14;101165.88;5079545;27;45342;-69
2022/08/24 03:14:00;;;;;;;;;2.00;2.00;;;;;24.08;57.68;101157.03;5076098;28;46309;-66
2022/08/24 03:16:27;;;;;;;;;3.33;2.00;;;;;24.15;57.78;101177.22;5074793;28;45498;-66
2022/08/24 03:18:53;;;;;;;;;3.00;3.00;;;;;24.09;57.81;101170.38;5072432;28;45540;-66
2022/08/24 03:21:22;;;;;;;;;1.25;1.25;;;;;24.14;57.52;101178.16;5062349;27;45522;-66
2022/08/24 03:23:48;;;;;;;;;2.00;2.00;;;;;24.18;57.01;101173.53;5074475;27;45941;-67
2022/08/24 03:26:14;;;;;;;;;2.75;2.75;;;;;24.15;57.44;101179.03;5073690;28;45391;-69
2022/08/24 03:28:40;;;;;;;;;2.33;2.00;;;;;24.14;57.34;101178.16;5062060;27;45650;-69
2022/08/24 03:31:06;;;;;;;;;3.00;1.00;;;;;24.20;57.10;101177.00;5054408;28;45481;-66
2022/08/24 03:33:31;;;;;;;;;1.00;1.00;;;;;24.21;57.18;101174.25;5035931;28;45462;-69
2022/08/24 03:35:57;;;;;;;;;1.33;1.33;;;;;24.29;56.77;101176.56;5053826;28;45508;-66
2022/08/24 03:38:23;;;;;;;;;1.25;1.25;;;;;24.22;57.50;101175.97;5053703;28;45574;-71
2022/08/24 03:40:49;;;;;;;;;2.25;2.25;;;;;24.23;57.53;101174.19;5053956;28;45547;-71
2022/08/24 03:46:01;;;;;;;;;2.25;2.00;;;;;24.20;57.19;101168.97;5053798;28;45312;-67
2022/08/24 03:48:29;;;;;;;;;3.00;3.00;;;;;24.04;57.53;101144.78;5057175;28;45593;-66
2022/08/24 03:50:56;;;;;;;;;4.25;2.00;;;;;24.13;57.70;101160.38;5039392;28;45465;-66
2022/08/24 03:53:22;;;;;;;;;2.33;2.33;;;;;23.99;57.53;101128.03;5058068;28;46482;-67
2022/08/24 03:55:47;;;;;;;;;3.00;3.00;;;;;24.19;57.79;101162.75;5070645;28;45730;-66
2022/08/24 03:58:13;;;;;;;;;3.00;3.00;;;;;24.10;58.23;101169.41;5074097;27;45430;-66
2022/08/24 04:00:41;;;;;;;;;2.33;2.33;;;;;24.05;57.71;101151.84;5074221;28;45746;-66
2022/08/24 04:03:09;;;;;;;;;3.00;3.00;;;;;24.11;58.19;101159.59;5074829;28;45399;-68
2022/08/24 04:05:36;;;;;;;;;2.33;2.33;;;;;24.05;58.31;101163.41;5076267;28;45337;-67
2022/08/24 04:08:02;;;;;;;;;4.33;3.00;;;;;24.14;57.83;101159.44;5073842;28;45503;-67
2022/08/24 04:10:28;;;;;;;;;5.00;3.67;;;;;24.16;57.96;101164.72;5077097;28;45386;-67
2022/08/24 04:12:57;;;;;;;;;5.00;5.00;;;;;24.08;57.88;101141.88;5077474;27;46134;-65
2022/08/24 04:15:23;;;;;;;;;4.00;4.00;;;;;24.15;58.40;101165.66;5067006;28;45827;-70
2022/08/24 04:17:49;;;;;;;;;3.00;3.00;;;;;23.91;58.36;101123.06;5074121;27;45322;-74
2022/08/24 04:20:16;;;;;;;;;3.33;3.33;;;;;23.88;57.91;101121.41;5074423;28;45446;-72
2022/08/24 04:22:43;;;;;;;;;4.67;4.00;;;;;23.99;58.54;101146.78;5073711;28;45438;-74
2022/08/24 04:25:09;;;;;;;;;4.00;3.00;;;;;24.09;58.48;101167.69;5077134;28;45175;-73
2022/08/24 04:27:36;;;;;;;;;5.33;4.00;;;;;24.13;58.18;101169.28;5073850;28;45470;-72
2022/08/24 04:30:04;;;;;;;;;2.00;2.00;;;;;24.17;58.06;101153.94;5073796;28;45354;-71
2022/08/24 04:32:32;;;;;;;;;4.33;3.00;;;;;24.21;57.79;101166.22;5073253;28;46330;-72
2022/08/24 04:34:58;;;;;;;;;3.33;3.00;;;;;24.21;58.17;101163.56;5065172;28;45358;-72
2022/08/24 04:37:28;;;;;;;;;3.67;3.67;;;;;23.90;58.08;101118.69;5064258;28;45859;-68
2022/08/24 04:39:55;;;;;;;;;4.67;4.00;;;;;24.21;57.96;101170.72;5057508;28;45497;-65
2022/08/24 04:42:21;;;;;;;;;4.00;4.00;;;;;24.07;58.08;101149.97;5056445;28;45434;-71
2022/08/24 04:45:02;;;;;;;;;3.67;3.67;;;;;24.09;58.29;101169.50;5060812;28;45625;-73
2022/08/24 04:47:27;;;;;;;;;4.33;4.33;;;;;23.94;58.61;101141.63;5068265;27;45397;-73
2022/08/24 04:49:53;;;;;;;;;4.00;4.00;;;;;24.07;58.55;101163.34;5053458;28;45477;-69
2022/08/24 04:52:19;;;;;;;;;5.33;4.33;;;;;24.05;58.36;101151.84;5067494;28;45303;-67
2022/08/24 04:54:45;;;;;;;;;4.00;4.00;;;;;23.99;58.81;101146.78;5054158;28;46186;-70
2022/08/24 04:57:14;;;;;;;;;6.33;3.67;;;;;24.02;58.76;101166.25;5067914;28;45545;-67
2022/08/24 04:59:40;;;;;;;;;4.33;4.00;;;;;24.04;58.39;101156.34;5072981;28;45542;-67
2022/08/24 05:02:05;;;;;;;;;4.00;4.00;;;;;23.89;57.98;101141.88;5063549;28;46804;-70
2022/08/24 05:04:31;;;;;;;;;3.67;3.67;;;;;23.77;58.48;101115.69;5056613;28;45492;-67
2022/08/24 05:06:57;;;;;;;;;2.00;2.00;;;;;23.78;58.00;101140.66;5059784;28;45481;-69
2022/08/24 05:09:22;;;;;;;;;2.25;2.00;;;;;23.91;58.42;101176.56;5061471;28;45668;-68
2022/08/24 05:11:48;;;;;;;;;3.67;3.67;;;;;23.88;58.62;101166.88;5056534;28;45909;-67
2022/08/24 05:14:13;;;;;;;;;3.33;3.33;;;;;23.77;58.46;101158.50;5057775;28;45574;-67
2022/08/24 05:16:39;;;;;;;;;3.67;3.67;;;;;23.68;58.28;101145.50;5058035;28;45844;-68
2022/08/24 05:19:06;;;;;;;;;4.00;3.00;;;;;23.70;58.11;101138.28;5056656;28;45699;-67
2022/08/24 05:21:32;;;;;;;;;2.67;2.67;;;;;23.95;58.19;101151.41;5059904;28;46228;-68
2022/08/24 05:23:57;;;;;;;;;4.33;4.33;;;;;23.91;58.09;101160.53;5055811;28;45478;-66
2022/08/24 05:26:25;;;;;;;;;6.33;5.00;;;;;24.01;58.26;101167.16;5055878;28;46127;-66
2022/08/24 05:29:00;;;;;;;;;5.67;4.67;;;;;24.00;58.14;101181.50;5056232;28;45502;-69
2022/08/24 05:31:28;;;;;;;;;4.67;3.00;;;;;23.86;58.15;101154.53;5056009;28;46536;-69
2022/08/24 05:33:54;;;;;;;;;4.33;4.33;;;;;24.01;58.10;101177.88;5073813;27;45783;-68
2022/08/24 05:36:26;;;;;;;;;3.67;3.33;;;;;24.04;57.96;101188.44;5062051;28;45374;-69
2022/08/24 05:38:54;;;;;;;;;4.67;4.67;;;;;23.98;58.23;101178.03;5037879;28;45422;-66
2022/08/24 05:41:20;;;;;;;;;3.67;3.67;;;;;23.99;58.24;101184.22;5055690;28;46253;-67
2022/08/24 05:43:46;;;;;;;;;3.33;3.33;;;;;23.92;57.79;101156.94;5056230;28;45331;-68
2022/08/24 05:46:12;;;;;;;;;4.00;4.00;;;;;24.09;57.80;101181.06;5059068;28;45519;-67
2022/08/24 05:48:38;;;;;;;;;4.00;3.00;;;;;23.89;57.95;101147.25;5060316;28;45575;-69
2022/08/24 05:51:19;;;;;;;;;4.00;4.00;;;;;23.92;57.82;101147.09;5058210;28;45523;-68
2022/08/24 05:53:44;;;;;;;;;4.00;4.00;;;;;24.03;57.60;101176.00;5045495;28;45476;-67
2022/08/24 05:56:13;;;;;;;;;6.00;4.33;;;;;24.17;57.38;101186.03;5069834;27;45373;-67
2022/08/24 05:58:39;;;;;;;;;5.00;3.33;;;;;24.21;57.12;101170.72;5076863;28;45816;-68
2022/08/24 06:01:06;;;;;;;;;6.00;3.00;;;;;24.44;56.30;101186.53;5075984;28;45441;-67
2022/08/24 06:03:32;;;;;;;;;6.00;5.00;;;;;24.57;56.17;101186.81;5078820;27;45438;-69
2022/08/24 06:05:58;;;;;;;;;5.00;5.00;;;;;24.67;56.35;101181.88;5075771;28;45497;-67
2022/08/24 06:08:23;;;;;;;;;4.67;4.67;;;;;24.47;55.67;101142.72;5075527;27;45702;-68
2022/08/24 06:10:49;;;;;;;;;4.67;4.67;;;;;24.66;55.71;101169.44;5075598;27;46170;-67
2022/08/24 06:13:15;;;;;;;;;4.67;4.00;;;;;24.88;54.88;101188.84;5076219;28;45375;-66
2022/08/24 06:15:42;;;;;;;;;6.00;5.00;;;;;24.76;55.27;101157.31;5075715;28;45259;-67
2022/08/24 06:18:08;;;;;;;;;4.00;4.00;;;;;24.71;55.14;101159.34;5076156;28;45665;-68
2022/08/24 06:20:42;;;;;;;;;4.33;4.33;;;;;24.82;54.54;101178.44;5080808;27;46234;-69
2022/08/24 06:23:08;;;;;;;;;5.00;5.00;;;;;24.74;54.71;101146.66;5075532;28;45773;-66
2022/08/24 06:28:24;;;;;;;;;5.00;3.33;;;;;24.76;55.07;101160.00;5075022;27;45476;-68
2022/08/24 06:30:49;;;;;;;;;4.00;4.00;;;;;24.82;54.22;101166.84;5082030;27;46343;-66
2022/08/24 06:33:15;;;;;;;;;5.00;5.00;;;;;24.98;54.41;101192.75;5086604;27;45443;-67
2022/08/24 06:35:41;;;;;;;;;6.00;5.00;;;;;24.98;54.60;101190.09;5074827;28;45592;-68
2022/08/24 06:38:06;;;;;;;;;4.00;4.00;;;;;24.97;54.28;101182.16;5075103;27;45432;-69
2022/08/24 06:40:32;;;;;;;;;5.00;3.33;;;;;25.19;54.07;101192.66;5074774;28;45593;-66
2022/08/24 06:43:02;;;;;;;;;4.33;4.33;;;;;25.41;53.61;101194.22;5074776;28;45605;-67
2022/08/24 06:45:28;;;;;;;;;9.00;6.00;;;;;25.51;52.87;101190.09;5075080;27;45474;-67
2022/08/24 06:47:54;;;;;;;;;5.00;5.00;;;;;25.63;52.47;101192.13;5075104;27;45544;-67
2022/08/24 06:50:20;;;;;;;;;5.00;5.00;;;;;25.71;52.73;101191.72;5074426;28;45366;-67
2022/08/24 06:52:46;;;;;;;;;5.00;5.00;;;;;25.68;51.89;101170.41;5079678;27;45754;-67
2022/08/24 06:55:11;;;;;;;;;4.00;4.00;;;;;25.83;52.04;101179.44;5065280;28;45286;-67
2022/08/24 06:57:37;;;;;;;;;4.25;4.25;;;;;25.91;51.95;101191.53;5074940;27;45847;-67
2022/08/24 07:00:04;;;;;;;;;3.00;3.00;;;;;25.95;51.68;101181.47;5074276;28;45484;-69
2022/08/24 07:02:30;;;;;;;;;4.33;4.33;;;;;25.99;51.46;101175.00;5074641;28;45462;-67
2022/08/24 07:04:56;;;;;;;;;4.25;4.25;;;;;26.02;51.64;101186.41;5075545;28;45494;-67
2022/08/24 07:07:22;;;;;;;;;4.50;4.25;;;;;25.93;51.49;101181.56;5079349;28;45381;-67
2022/08/24 07:09:47;;;;;;;;;5.00;5.00;;;;;25.89;51.71;101169.28;5079090;28;46409;-76
2022/08/24 07:12:13;;;;;;;;;6.00;3.75;;;;;26.04;51.62;101191.69;5075302;28;45674;-67
2022/08/24 07:14:39;;;;;;;;;5.25;4.00;;;;;25.93;51.50;101153.84;5081969;27;45389;-66
2022/08/24 07:17:04;;;;;;;;;4.75;3.00;;;;;26.22;50.85;101189.81;5073095;27;45765;-67
2022/08/24 07:19:30;;;;;;;;;6.50;6.00;;;;;26.16;51.34;101171.38;5054437;28;46278;-67
2022/08/24 07:21:57;;;;;;;;;5.50;5.50;;;;;26.28;50.99;101180.53;5054501;28;45399;-67
2022/08/24 07:24:23;;;;;;;;;6.00;5.00;;;;;26.44;51.36;101189.47;5054439;28;45411;-67
2022/08/24 07:26:48;;;;;;;;;5.50;5.00;;;;;26.43;50.47;101183.22;5054618;28;45821;-67
2022/08/24 07:29:14;;;;;;;;;5.75;4.00;;;;;26.42;50.31;101197.59;5057372;28;45642;-68
2022/08/24 07:31:42;;;;;;;;;4.50;4.50;;;;;26.53;50.72;101202.38;5054439;28;45833;-67
2022/08/24 07:34:09;;;;;;;;;4.50;4.50;;;;;26.41;50.62;101170.81;5053988;28;45452;-66
2022/08/24 19:51:50;;;;;;;;;8.50;8.50;;;;;28.42;37.25;100987.88;5057056;28;45416;-71
2022/08/24 19:54:16;;;;;;;;;10.75;10.00;;;;;28.34;36.66;100969.56;5050206;28;45452;-67
2022/08/24 19:56:41;;;;;;;;;12.75;11.00;;;;;28.53;36.43;100964.66;5050433;28;45581;-65
2022/08/24 19:59:18;;;;;;;;;13.00;11.25;;;;;28.74;36.38;100972.22;5050336;28;45631;-63
2022/08/24 20:01:44;;;;;;;;;14.00;11.75;;;;;28.98;35.92;100995.72;5049484;28;45544;-74
2022/08/24 20:04:11;;;;;;;;;8.75;8.75;;;;;29.10;35.63;100987.63;5051693;28;45644;-72
2022/08/24 20:06:38;;;;;;;;;12.25;10.75;;;;;29.17;35.46;100986.22;5054317;28;45426;-67
2022/08/24 20:09:04;;;;;;;;;11.25;10.00;;;;;29.29;35.84;100991.69;5050962;28;45788;-65
2022/08/24 20:11:30;;;;;;;;;12.00;11.00;;;;;29.37;35.04;100989.28;5049017;28;45313;-63
2022/08/24 20:13:56;;;;;;;;;11.50;10.25;;;;;29.49;35.07;101001.88;5049329;28;45348;-75
2022/08/24 20:16:25;;;;;;;;;10.25;10.25;;;;;29.47;35.39;100982.25;5049224;28;45446;-67
2022/08/24 20:18:51;;;;;;;;;12.00;10.00;;;;;29.48;35.08;100973.19;5050100;28;45469;-65
2022/08/24 20:21:16;;;;;;;;;12.25;9.00;;;;;29.63;34.60;100991.91;5049803;28;46283;-71
2022/08/24 20:23:44;;;;;;;;;14.25;10.50;;;;;29.69;34.60;100986.94;5052841;28;45533;-67
2022/08/24 20:26:12;;;;;;;;;11.75;10.50;;;;;29.67;34.67;100993.44;5053301;28;45452;-66
2022/08/24 20:28:45;;;;;;;;;8.50;8.00;;;;;29.70;35.08;100991.34;5053740;28;45561;-67
2022/08/24 20:31:12;;;;;;;;;9.00;9.00;;;;;29.71;34.59;100984.13;5051394;28;46262;-65
2022/08/24 20:33:38;;;;;;;;;11.25;10.75;;;;;29.72;34.48;100985.84;5061474;28;45478;-70
2022/08/24 20:36:06;;;;;;;;;8.25;8.25;;;;;29.72;34.83;100988.56;5043690;28;45864;-65
2022/08/24 20:38:33;;;;;;;;;9.00;9.00;;;;;29.69;34.76;100986.94;5049967;28;45587;-67
2022/08/24 20:41:00;;;;;;;;;11.50;11.50;;;;;29.62;34.24;100980.25;5051530;28;45682;-69
2022/08/24 20:43:27;;;;;;;;;9.75;9.25;;;;;29.66;34.34;100979.06;5049830;28;45782;-72
2022/08/24 20:45:54;;;;;;;;;13.25;11.50;;;;;29.59;34.78;100973.25;5050255;28;45358;-74
2022/08/24 20:48:26;;;;;;;;;11.00;9.50;;;;;29.71;35.02;100998.50;5050686;28;45682;-66
2022/08/24 20:50:53;;;;;;;;;10.75;9.25;;;;;29.64;34.93;100982.81;5046613;28;48219;-65
2022/08/24 20:53:19;;;;;;;;;11.50;10.75;;;;;29.62;35.34;100982.94;5049967;28;45475;-64
2022/08/24 20:55:45;;;;;;;;;11.75;11.75;;;;;29.67;35.14;100985.34;5052246;28;45398;-65
2022/08/24 20:58:13;;;;;;;;;13.75;13.00;;;;;29.60;35.31;100974.97;5053720;28;45252;-64
2022/08/24 21:00:42;;;;;;;;;9.25;9.25;;;;;29.63;35.29;100987.34;5051479;28;47437;-75
2022/08/24 21:03:09;;;;;;;;;10.75;10.75;;;;;29.55;35.40;100978.97;5038509;28;45311;-67
2022/08/24 21:05:37;;;;;;;;;10.25;10.25;;;;;29.63;34.96;100994.59;5041377;28;45407;-65
2022/08/24 21:08:04;;;;;;;;;15.50;10.75;;;;;29.49;35.47;100982.97;5040050;28;45485;-73
2022/08/24 21:10:31;;;;;;;;;12.25;10.75;;;;;29.57;35.39;100999.47;5036717;28;45552;-65
2022/08/24 21:12:56;;;;;;;;;11.75;10.00;;;;;29.52;35.26;100989.97;5037039;28;45465;-75
2022/08/24 21:15:23;;;;;;;;;10.50;10.50;;;;;29.47;35.52;100986.75;5036688;28;45306;-67
2022/08/24 21:17:49;;;;;;;;;12.25;10.75;;;;;29.41;35.22;100988.09;5037990;28;45684;-65
2022/08/24 21:20:15;;;;;;;;;13.50;11.75;;;;;29.35;35.60;100992.13;5037328;28;45890;-72
2022/08/24 21:22:41;;;;;;;;;10.50;10.50;;;;;29.28;35.44;100989.94;5037509;28;45564;-66
2022/08/24 21:25:08;;;;;;;;;12.00;11.00;;;;;29.30;35.13;100999.66;5033535;28;45500;-63
2022/08/24 21:27:37;;;;;;;;;11.00;11.00;;;;;29.22;35.54;100982.31;5036813;28;45763;-66
2022/08/24 21:30:05;;;;;;;;;10.25;10.00;;;;;29.31;35.57;100997.84;5034750;28;47175;-64
2022/08/24 21:35:15;;;;;;;;;9.75;9.25;;;;;29.19;35.74;100988.81;5035351;28;45672;-66
2022/08/24 21:37:41;;;;;;;;;12.00;10.50;;;;;29.21;35.75;101002.16;5035353;28;45498;-69
2022/08/24 21:40:07;;;;;;;;;11.25;10.75;;;;;29.20;35.53;100997.75;5034891;28;46455;-71
2022/08/24 21:42:34;;;;;;;;;9.00;9.00;;;;;29.18;35.32;100989.75;5034038;28;45311;-64
2022/08/24 21:45:00;;;;;;;;;12.00;10.00;;;;;29.11;35.73;100992.03;5034723;28;45450;-66
2022/08/24 21:47:34;;;;;;;;;14.25;11.50;;;;;29.10;35.72;101000.25;5034667;28;45493;-64
2022/08/24 21:49:59;;;;;;;;;9.50;9.25;;;;;29.06;35.73;100983.38;5039285;28;46198;-66
2022/08/24 21:52:25;;;;;;;;;8.50;8.50;;;;;29.05;35.94;100980.81;5054362;28;45727;-64
2022/08/24 21:54:51;;;;;;;;;11.00;9.25;;;;;29.00;35.77;100973.06;5054104;28;45712;-66
2022/08/24 21:57:17;;;;;;;;;11.25;9.50;;;;;29.06;35.89;100983.38;5058966;28;45640;-64
2022/08/24 21:59:46;;;;;;;;;8.50;8.50;;;;;29.08;35.73;100983.31;5057359;28;45427;-70
2022/08/24 22:02:12;;;;;;;;;8.75;8.75;;;;;29.00;35.49;100978.44;5043728;28;45550;-65
2022/08/24 22:04:37;;;;;;;;;9.00;8.00;;;;;29.00;35.68;100974.88;5053790;28;45743;-65
2022/08/24 22:07:03;;;;;;;;;7.00;7.00;;;;;28.97;35.48;100981.34;5054952;28;45436;-65
2022/08/24 22:09:30;;;;;;;;;9.00;9.00;;;;;28.89;36.25;100972.94;5055026;28;46079;-65
2022/08/24 22:11:57;;;;;;;;;12.50;8.00;;;;;28.95;35.69;100986.88;5054091;28;45558;-64
2022/08/24 22:14:24;;;;;;;;;8.50;8.50;;;;;28.83;36.05;100959.91;5053376;28;45383;-65
2022/08/24 22:16:50;;;;;;;;;7.75;7.25;;;;;28.93;36.25;100975.31;5055682;28;45396;-65
2022/08/24 22:19:16;;;;;;;;;9.00;8.75;;;;;28.87;35.85;100972.19;5056889;28;45593;-66
2022/08/24 22:21:44;;;;;;;;;9.50;8.75;;;;;28.84;36.39;100972.41;5054210;28;45651;-65
2022/08/24 22:24:10;;;;;;;;;8.00;8.00;;;;;28.92;35.91;100987.06;5054361;28;45749;-65
2022/08/24 22:26:35;;;;;;;;;13.25;10.25;;;;;28.90;36.34;100980.06;5054408;28;45388;-66
2022/08/24 22:29:03;;;;;;;;;9.00;8.00;;;;;28.90;35.88;100993.53;5054086;28;45373;-65
2022/08/24 22:31:34;;;;;;;;;8.75;8.00;;;;;28.89;36.12;100989.13;5056234;28;45459;-66
2022/08/24 22:34:04;;;;;;;;;10.00;8.00;;;;;28.92;36.38;100986.19;5058911;28;45394;-64
2022/08/24 22:36:33;;;;;;;;;10.00;10.00;;;;;28.79;36.47;100970.06;5058722;28;45547;-66
2022/08/24 22:38:59;;;;;;;;;9.00;9.00;;;;;28.78;36.08;100962.91;5058379;28;45546;-66
2022/08/24 22:41:27;;;;;;;;;9.00;9.00;;;;;28.82;35.76;100980.59;5040511;28;45558;-66
2022/08/24 22:46:38;;;;;;;;;11.00;11.00;;;;;28.64;35.98;100972.00;5056617;28;45370;-68
2022/08/24 22:49:04;;;;;;;;;10.50;10.50;;;;;28.64;36.04;100977.41;5054446;28;45626;-65
2022/08/24 22:51:30;;;;;;;;;12.00;11.00;;;;;28.64;35.90;100974.69;5053550;28;45655;-64
2022/08/24 22:53:56;;;;;;;;;12.75;11.00;;;;;28.56;36.36;100958.19;5054661;28;45617;-65
2022/08/24 22:56:28;;;;;;;;;10.00;8.50;;;;;28.66;36.13;100980.81;5054180;28;45475;-65
2022/08/24 22:58:54;;;;;;;;;10.00;8.25;;;;;28.65;36.60;100979.09;5036745;28;46431;-69
2022/08/24 23:01:25;;;;;;;;;9.25;9.00;;;;;28.66;36.78;100982.66;5054019;28;45497;-66
2022/08/24 23:03:58;;;;;;;;;11.25;9.50;;;;;28.49;36.17;100955.06;5054484;28;45463;-67
2022/08/24 23:06:26;;;;;;;;;9.75;9.50;;;;;28.67;36.80;100985.25;5053847;28;45544;-67
2022/08/24 23:08:53;;;;;;;;;11.50;9.25;;;;;28.59;36.37;100957.97;5038866;28;45560;-68
2022/08/24 23:11:25;;;;;;;;;11.75;9.75;;;;;28.60;36.34;100981.25;5054027;28;45315;-68
2022/08/24 23:13:51;;;;;;;;;10.25;10.25;;;;;28.49;36.34;100968.53;5055460;28;45492;-69
2022/08/24 23:16:17;;;;;;;;;12.50;10.50;;;;;28.59;36.33;100987.59;5057077;28;45480;-66
2022/08/24 23:21:27;;;;;;;;;12.75;11.25;;;;;28.45;36.79;100979.59;5056681;28;45460;-66
2022/08/24 23:23:56;;;;;;;;;13.50;12.00;;;;;28.44;36.52;100985.97;5035975;28;45375;-67
2022/08/24 23:26:22;;;;;;;;;13.25;13.00;;;;;28.34;36.25;100991.97;5053108;28;45424;-65
2022/08/24 23:28:48;;;;;;;;;11.00;8.50;;;;;27.71;36.65;100895.75;5053648;28;46334;-67
2022/08/24 23:31:16;;;;;;;;;12.50;11.00;;;;;28.30;37.02;100973.44;5038899;28;45413;-69
2022/08/24 23:33:41;;;;;;;;;9.50;9.50;;;;;28.34;36.76;100991.13;5053796;28;45319;-66
2022/08/24 23:36:21;;;;;;;;;12.00;11.00;;;;;28.17;36.76;100981.50;5053978;28;45327;-68
2022/08/24 23:38:54;;;;;;;;;12.00;11.00;;;;;28.23;37.05;100996.38;5035941;28;45356;-68
2022/08/24 23:41:26;;;;;;;;;12.00;10.75;;;;;28.22;36.87;100992.81;5053197;28;45309;-66
2022/08/24 23:43:58;;;;;;;;;10.75;10.75;;;;;28.13;37.15;100986.22;5053288;28;45288;-68
2022/08/24 23:46:25;;;;;;;;;15.25;14.50;;;;;28.15;37.09;100985.28;5055326;28;45453;-65
2022/08/24 23:48:51;;;;;;;;;15.00;13.00;;;;;27.98;36.94;100972.94;5056894;28;45485;-76
2022/08/24 23:51:19;;;;;;;;;11.67;11.67;;;;;28.02;37.01;100990.59;5041345;28;45497;-74
2022/08/24 23:53:46;;;;;;;;;14.00;12.25;;;;;27.89;37.08;100967.22;5060267;28;45638;-70